Pickle Lake, Canada
Current Conditions -  °F | °C
As of 9:00 AM on Monday 24 Nov 2014 (Local Time) from CYPL Reporting Station
Light Snow Light Snow  
Wind Chill: -9°   Ceiling: 3000
Heat Index:   Visibility: 10mi
Dew Point:   Wind: 12mph
Humidity: 79%   Direction: 20°NNE
Pressure: 29.54"   Gusts: 23mph
Location:  51.47°N, 90.18°W
Report Text: CYPL 241500Z 02010G20KT 330V060 10SM -SN DRSN SCT013 OVC030 M14/M17 A2954 RMK SC4SC4 SLP037
Loading
Personal Weather Stations






























Interactive Weather Map New forecast layout! Learn more

10-Day Weather Forecast

Advertisements
Track Severe Weather on mobile